Time;durP1;ratioP1;P1;durP2;ratioP2;P2;SDS_P1;SDS_P2;PMS_P1;PMS_P2;Temp;Humidity;BMP_temperature;BMP_pressure;BME280_temperature;BME280_humidity;BME280_pressure;Samples;Min_cycle;Max_cycle;Signal;HPM_P1;HPM_P2
2022/01/01 00:00:45;;;;;;;10.17;8.10;;;11.70;99.90;;;;;;5107848;27;20232;-54
2022/01/01 00:03:14;;;;;;;8.60;7.40;;;11.70;99.90;;;;;;5092849;28;20673;-55
2022/01/01 00:05:42;;;;;;;8.57;7.20;;;11.70;99.90;;;;;;5092686;28;20220;-53
2022/01/01 00:08:11;;;;;;;8.87;7.20;;;11.80;99.90;;;;;;5105693;28;20239;-52
2022/01/01 00:10:41;;;;;;;9.27;7.20;;;11.80;99.90;;;;;;5113887;28;20204;-56
2022/01/01 00:13:15;;;;;;;8.93;7.47;;;11.80;99.90;;;;;;5113329;27;20213;-56
2022/01/01 00:15:44;;;;;;;7.70;6.97;;;11.80;99.90;;;;;;5110334;28;20231;-53
2022/01/01 00:18:12;;;;;;;9.17;7.37;;;11.80;99.90;;;;;;5113676;28;20220;-56
2022/01/01 00:20:40;;;;;;;11.67;7.97;;;11.90;99.90;;;;;;5094950;28;20574;-53
2022/01/01 00:23:08;;;;;;;8.60;7.37;;;11.90;99.90;;;;;;5093065;28;20204;-55
2022/01/01 00:25:36;;;;;;;10.10;7.70;;;11.90;99.90;;;;;;5092828;28;20243;-57
2022/01/01 00:28:06;;;;;;;12.10;7.90;;;11.90;99.90;;;;;;5092739;28;20192;-54
2022/01/01 00:30:34;;;;;;;9.57;8.17;;;11.90;99.90;;;;;;5106374;28;20215;-53
2022/01/01 00:33:04;;;;;;;10.07;8.20;;;11.90;99.90;;;;;;5105946;28;20634;-55
2022/01/01 00:35:32;;;;;;;11.83;9.67;;;11.90;99.90;;;;;;5107334;28;20255;-55
2022/01/01 00:38:00;;;;;;;13.13;9.93;;;11.90;99.90;;;;;;5105880;28;20303;-56
2022/01/01 00:40:28;;;;;;;13.00;8.97;;;11.90;99.90;;;;;;5096898;28;20196;-54
2022/01/01 00:42:56;;;;;;;13.13;10.07;;;11.90;99.90;;;;;;5112663;28;20200;-55
2022/01/01 00:45:26;;;;;;;9.97;8.43;;;11.90;99.90;;;;;;5113815;28;20228;-55
2022/01/01 00:47:54;;;;;;;8.70;7.80;;;11.80;99.90;;;;;;5110170;28;20200;-55
2022/01/01 00:50:23;;;;;;;9.03;7.37;;;11.90;99.90;;;;;;5113412;28;20257;-53
2022/01/01 00:52:52;;;;;;;9.80;7.70;;;11.90;99.90;;;;;;5118216;27;20219;-55
2022/01/01 00:55:20;;;;;;;9.63;7.43;;;11.90;99.90;;;;;;5111438;28;20196;-55
2022/01/01 00:57:48;;;;;;;7.93;6.97;;;11.80;99.90;;;;;;5112231;28;20700;-54
2022/01/01 01:00:17;;;;;;;12.67;10.33;;;11.80;99.90;;;;;;5108726;28;20204;-55
2022/01/01 01:02:46;;;;;;;13.23;11.53;;;11.80;99.90;;;;;;5113220;28;20683;-55
2022/01/01 01:05:15;;;;;;;17.93;12.57;;;11.70;99.90;;;;;;5109262;28;20211;-53
2022/01/01 01:07:43;;;;;;;20.53;15.17;;;11.70;99.90;;;;;;5096593;28;20257;-55
2022/01/01 01:10:12;;;;;;;23.07;16.03;;;11.70;99.90;;;;;;5105388;28;20249;-56
2022/01/01 01:12:44;;;;;;;24.73;17.97;;;11.70;99.90;;;;;;5100464;28;20196;-54
2022/01/01 01:15:17;;;;;;;22.73;15.57;;;11.70;99.90;;;;;;5108465;28;20204;-54
2022/01/01 01:17:48;;;;;;;23.13;17.67;;;11.60;99.90;;;;;;5109448;28;20224;-54
2022/01/01 01:20:17;;;;;;;20.93;15.87;;;11.60;99.90;;;;;;5111749;28;20225;-55
2022/01/01 01:22:45;;;;;;;24.07;18.20;;;11.60;99.90;;;;;;5112264;28;20235;-54
2022/01/01 01:25:14;;;;;;;22.27;16.80;;;11.60;99.90;;;;;;5109373;28;20199;-54
2022/01/01 01:27:44;;;;;;;21.07;15.60;;;11.50;99.90;;;;;;5110834;28;20204;-54
2022/01/01 01:30:15;;;;;;;24.30;16.83;;;11.60;99.90;;;;;;5110778;28;20207;-53
2022/01/01 01:32:44;;;;;;;15.77;12.30;;;11.60;99.90;;;;;;5116992;27;20745;-55
2022/01/01 01:35:15;;;;;;;14.00;11.20;;;11.60;99.90;;;;;;5098763;28;20619;-54
2022/01/01 01:37:43;;;;;;;10.93;9.20;;;11.60;99.90;;;;;;5091987;28;20252;-54
2022/01/01 01:40:12;;;;;;;12.27;8.53;;;11.70;99.90;;;;;;5090371;28;20200;-55
2022/01/01 01:42:43;;;;;;;8.20;7.07;;;11.70;99.90;;;;;;5091139;28;20204;-54
2022/01/01 01:45:16;;;;;;;7.23;6.10;;;11.70;99.90;;;;;;5104321;28;20226;-54
2022/01/01 01:47:47;;;;;;;10.90;6.57;;;11.70;99.90;;;;;;5107273;28;20249;-54
2022/01/01 01:50:19;;;;;;;8.07;6.53;;;11.80;99.90;;;;;;5112161;28;20211;-54
2022/01/01 01:52:51;;;;;;;12.73;6.77;;;11.80;99.90;;;;;;5100490;28;20233;-53
2022/01/01 01:55:20;;;;;;;8.63;6.23;;;11.80;99.90;;;;;;5112015;28;20207;-54
2022/01/01 01:57:48;;;;;;;10.10;6.80;;;11.80;99.90;;;;;;5111616;28;20251;-53
2022/01/01 02:00:52;;;;;;;8.87;6.80;;;11.80;99.90;;;;;;5102747;28;20677;-53
2022/01/01 02:03:10;;;;;;;13.70;8.13;;;11.80;99.90;;;;;;5092061;28;20239;-53
2022/01/01 02:05:41;;;;;;;11.10;8.07;;;11.70;99.90;;;;;;5091886;28;20266;-60
2022/01/01 02:08:11;;;;;;;10.97;7.33;;;11.70;99.90;;;;;;5094979;28;20208;-55
2022/01/01 02:10:41;;;;;;;8.57;6.67;;;11.70;99.90;;;;;;5092502;28;20219;-54
2022/01/01 02:13:17;;;;;;;10.70;6.63;;;11.80;99.90;;;;;;5109578;28;20204;-53
2022/01/01 02:15:59;;;;;;;7.90;6.07;;;11.80;99.90;;;;;;5111747;28;20226;-54
2022/01/01 02:18:28;;;;;;;6.57;5.50;;;11.80;99.90;;;;;;5111731;28;20795;-54
2022/01/01 02:20:58;;;;;;;8.57;6.00;;;11.80;99.90;;;;;;5111206;28;20679;-55
2022/01/01 02:23:27;;;;;;;7.63;6.00;;;11.80;99.90;;;;;;5131737;27;20554;-54
2022/01/01 02:25:57;;;;;;;7.83;5.60;;;11.80;99.90;;;;;;5131312;27;20223;-55
2022/01/01 02:28:25;;;;;;;10.23;5.93;;;11.80;99.90;;;;;;5132382;27;20187;-55
2022/01/01 02:30:54;;;;;;;8.70;5.80;;;11.90;99.90;;;;;;5132189;27;20247;-54
2022/01/01 02:33:22;;;;;;;9.57;5.80;;;11.90;99.90;;;;;;5131701;27;20580;-57
2022/01/01 02:35:51;;;;;;;7.70;6.13;;;11.90;99.90;;;;;;5132293;27;20284;-54
2022/01/01 02:38:21;;;;;;;8.77;6.70;;;11.80;99.90;;;;;;5116984;28;20261;-53
2022/01/01 02:40:49;;;;;;;10.90;8.50;;;11.80;99.90;;;;;;5111964;28;20200;-55
2022/01/01 02:43:18;;;;;;;10.73;8.20;;;11.70;99.90;;;;;;5110548;28;20752;-55
2022/01/01 02:45:47;;;;;;;12.73;9.53;;;11.70;99.90;;;;;;5111318;28;20326;-55
2022/01/01 02:48:16;;;;;;;16.93;10.23;;;11.70;99.90;;;;;;5111446;28;20195;-54
2022/01/01 02:50:44;;;;;;;15.30;10.67;;;11.60;99.90;;;;;;5111687;28;20672;-56
2022/01/01 02:53:13;;;;;;;15.87;11.40;;;11.60;99.90;;;;;;5115313;28;20203;-54
2022/01/01 02:55:45;;;;;;;17.17;11.03;;;11.50;99.90;;;;;;5115067;28;20231;-54
2022/01/01 02:58:14;;;;;;;15.03;10.87;;;11.50;99.90;;;;;;5115340;28;20246;-54
2022/01/01 03:00:42;;;;;;;18.27;11.47;;;11.50;99.90;;;;;;5096301;28;20219;-57
2022/01/01 03:03:11;;;;;;;21.63;13.10;;;11.60;99.90;;;;;;5101966;28;20735;-55
2022/01/01 03:05:40;;;;;;;19.10;13.50;;;11.60;99.90;;;;;;5115083;28;20817;-54
2022/01/01 03:08:08;;;;;;;19.00;12.73;;;11.60;99.90;;;;;;5115407;28;20249;-53
2022/01/01 03:10:36;;;;;;;16.67;11.73;;;11.60;99.90;;;;;;5102320;28;20211;-54
2022/01/01 03:13:06;;;;;;;16.53;12.57;;;11.50;99.90;;;;;;5098261;28;20227;-54
2022/01/01 03:15:35;;;;;;;18.43;12.13;;;11.50;99.90;;;;;;5115552;28;20219;-54
2022/01/01 03:18:03;;;;;;;15.77;11.50;;;11.50;99.90;;;;;;5114992;28;20203;-55
2022/01/01 03:20:32;;;;;;;16.83;12.60;;;11.50;99.90;;;;;;5132911;27;20199;-55
2022/01/01 03:23:00;;;;;;;17.53;12.00;;;11.50;99.90;;;;;;5135248;27;20207;-54
2022/01/01 03:25:28;;;;;;;16.70;12.13;;;11.60;99.90;;;;;;5134757;27;20226;-54
2022/01/01 03:27:57;;;;;;;19.07;12.73;;;11.60;99.90;;;;;;5126674;27;20636;-54
2022/01/01 03:30:27;;;;;;;21.73;13.20;;;11.60;99.90;;;;;;5135828;27;20209;-53
2022/01/01 03:32:55;;;;;;;17.37;12.10;;;11.60;99.90;;;;;;5135827;27;20199;-54
2022/01/01 03:35:24;;;;;;;17.20;12.63;;;11.60;99.90;;;;;;5135386;27;20203;-56
2022/01/01 03:37:52;;;;;;;15.97;11.37;;;11.50;99.90;;;;;;5124054;27;20203;-55
2022/01/01 03:40:20;;;;;;;18.30;13.07;;;11.50;99.90;;;;;;5117082;27;20231;-53
2022/01/01 03:42:49;;;;;;;23.37;13.27;;;11.50;99.90;;;;;;5114913;27;20638;-55
2022/01/01 03:45:17;;;;;;;17.80;12.40;;;11.50;99.90;;;;;;5103210;28;20208;-54
2022/01/01 03:47:47;;;;;;;14.77;10.90;;;11.50;99.90;;;;;;5114744;28;20210;-54
2022/01/01 03:50:15;;;;;;;15.07;9.90;;;11.50;99.90;;;;;;5114554;28;20204;-55
2022/01/01 03:52:44;;;;;;;13.13;10.33;;;11.50;99.90;;;;;;5102209;28;20195;-55
2022/01/01 03:55:14;;;;;;;17.13;10.40;;;11.50;99.90;;;;;;5113679;28;20265;-56
2022/01/01 03:57:42;;;;;;;14.20;9.90;;;11.60;99.90;;;;;;5113966;28;20252;-54
2022/01/01 04:00:12;;;;;;;14.63;10.33;;;11.60;99.90;;;;;;5114063;28;20268;-54
2022/01/01 04:02:40;;;;;;;16.23;10.10;;;11.70;99.90;;;;;;5105988;27;20237;-53
2022/01/01 04:05:10;;;;;;;18.43;10.60;;;11.70;99.90;;;;;;5120546;27;20287;-55
2022/01/01 04:07:39;;;;;;;18.80;10.70;;;11.70;99.90;;;;;;5114245;28;20214;-56
2022/01/01 04:10:08;;;;;;;13.43;9.10;;;11.70;99.90;;;;;;5114070;28;20249;-56
2022/01/01 04:12:36;;;;;;;14.87;8.53;;;11.70;99.90;;;;;;5113915;28;20252;-53
2022/01/01 04:15:05;;;;;;;15.13;9.17;;;11.70;99.90;;;;;;5093856;28;20204;-54
2022/01/01 04:17:36;;;;;;;14.40;8.90;;;11.70;99.90;;;;;;5093910;28;20639;-56
2022/01/01 04:20:07;;;;;;;13.67;8.83;;;11.70;99.90;;;;;;5106852;28;20257;-54
2022/01/01 04:22:37;;;;;;;15.67;9.13;;;11.60;99.90;;;;;;5093615;28;20245;-55
2022/01/01 04:25:06;;;;;;;16.23;9.40;;;11.60;99.90;;;;;;5094018;28;20208;-56
2022/01/01 04:27:34;;;;;;;13.30;8.80;;;11.60;99.90;;;;;;5092838;28;20208;-54
2022/01/01 04:30:02;;;;;;;16.23;9.80;;;11.60;99.90;;;;;;5093314;28;20208;-54
2022/01/01 04:32:30;;;;;;;16.77;10.27;;;11.60;99.90;;;;;;5093133;28;20208;-54
2022/01/01 04:34:59;;;;;;;18.23;10.37;;;11.60;99.90;;;;;;5093455;28;20668;-54
2022/01/01 04:37:27;;;;;;;16.97;10.80;;;11.60;99.90;;;;;;5103980;27;20760;-55
2022/01/01 04:39:59;;;;;;;17.83;10.30;;;11.60;99.90;;;;;;5114034;28;20292;-54
2022/01/01 04:42:27;;;;;;;17.47;10.83;;;11.60;99.90;;;;;;5112892;28;20210;-55
2022/01/01 04:44:56;;;;;;;17.83;10.67;;;11.60;99.90;;;;;;5112311;28;20211;-56
2022/01/01 04:47:24;;;;;;;19.07;10.90;;;11.60;99.90;;;;;;5120905;27;20223;-54
2022/01/01 04:49:52;;;;;;;14.23;11.13;;;11.60;99.90;;;;;;5117369;27;20203;-55
2022/01/01 04:52:21;;;;;;;18.27;10.27;;;11.60;99.90;;;;;;5112701;28;20204;-55
2022/01/01 04:54:49;;;;;;;16.93;10.77;;;11.60;99.90;;;;;;5113044;28;20204;-53
2022/01/01 04:57:18;;;;;;;16.07;10.77;;;11.60;99.90;;;;;;5092525;28;20281;-53
2022/01/01 04:59:46;;;;;;;19.70;11.73;;;11.60;99.90;;;;;;5092646;28;20220;-55
2022/01/01 05:02:15;;;;;;;18.63;11.53;;;11.60;99.90;;;;;;5113094;28;20211;-54
2022/01/01 05:04:43;;;;;;;19.43;11.53;;;11.60;99.90;;;;;;5113318;28;20246;-53
2022/01/01 05:07:11;;;;;;;21.20;12.40;;;11.60;99.90;;;;;;5112270;28;20712;-53
2022/01/01 05:09:39;;;;;;;17.27;11.50;;;11.60;99.90;;;;;;5113729;28;20208;-55
2022/01/01 05:12:08;;;;;;;20.67;11.77;;;11.60;99.90;;;;;;5111991;28;20752;-55
2022/01/01 05:14:37;;;;;;;21.37;11.27;;;11.60;99.90;;;;;;5112958;28;20204;-53
2022/01/01 05:17:06;;;;;;;16.77;11.23;;;11.60;99.90;;;;;;5112458;28;20224;-55
2022/01/01 05:19:34;;;;;;;21.30;12.63;;;11.60;99.90;;;;;;5113121;28;20258;-54
2022/01/01 05:22:02;;;;;;;21.10;12.00;;;11.50;99.90;;;;;;5112735;28;20208;-54
2022/01/01 05:24:30;;;;;;;17.00;11.60;;;11.50;99.90;;;;;;5104097;28;20207;-54
2022/01/01 05:26:59;;;;;;;21.73;11.93;;;11.50;99.90;;;;;;5091168;28;20274;-55
2022/01/01 05:29:27;;;;;;;18.90;12.80;;;11.50;99.90;;;;;;5092074;28;20250;-54
2022/01/01 05:31:57;;;;;;;21.47;12.30;;;11.50;99.90;;;;;;5091940;28;20250;-54
2022/01/01 05:34:25;;;;;;;19.43;12.20;;;11.50;99.90;;;;;;5123589;27;20207;-54
2022/01/01 05:36:54;;;;;;;19.33;12.20;;;11.50;99.90;;;;;;5129653;27;20223;-56
2022/01/01 05:39:23;;;;;;;20.63;12.43;;;11.50;99.90;;;;;;5112056;28;20204;-54
2022/01/01 05:41:54;;;;;;;18.93;11.80;;;11.50;99.90;;;;;;5111608;28;20233;-54
2022/01/01 05:44:22;;;;;;;20.20;12.20;;;11.50;99.90;;;;;;5112600;28;20192;-53
2022/01/01 05:46:53;;;;;;;17.63;11.57;;;11.40;99.90;;;;;;5111591;28;20257;-53
2022/01/01 05:49:23;;;;;;;20.07;12.33;;;11.50;99.90;;;;;;5112216;28;20222;-53
2022/01/01 05:51:51;;;;;;;19.53;12.33;;;11.50;99.90;;;;;;5111554;28;20212;-54
2022/01/01 05:54:20;;;;;;;18.77;12.27;;;11.40;99.90;;;;;;5131942;27;20202;-54
2022/01/01 05:56:48;;;;;;;21.90;13.40;;;11.40;99.90;;;;;;5124729;27;20269;-55
2022/01/01 05:59:16;;;;;;;20.10;12.93;;;11.50;99.90;;;;;;5105156;28;20249;-54
2022/01/01 06:01:44;;;;;;;20.53;12.80;;;11.50;99.90;;;;;;5091321;28;20224;-56
2022/01/01 06:04:13;;;;;;;22.77;12.50;;;11.40;99.90;;;;;;5091683;28;20261;-53
2022/01/01 06:06:47;;;;;;;22.93;13.27;;;11.50;99.90;;;;;;5109789;28;20280;-54
2022/01/01 06:09:15;;;;;;;18.80;12.00;;;11.50;99.90;;;;;;5111980;28;20208;-54
2022/01/01 06:11:43;;;;;;;20.83;12.60;;;11.40;99.90;;;;;;5111802;28;20249;-56
2022/01/01 06:14:11;;;;;;;21.07;13.23;;;11.50;99.90;;;;;;5111586;28;20203;-54
2022/01/01 06:16:40;;;;;;;19.87;12.17;;;11.50;99.90;;;;;;5111756;28;20259;-53
2022/01/01 06:19:08;;;;;;;16.70;11.80;;;11.50;99.90;;;;;;5117728;27;20701;-54
2022/01/01 06:21:36;;;;;;;19.10;12.10;;;11.50;99.90;;;;;;5131273;27;20271;-54
2022/01/01 06:24:06;;;;;;;19.97;12.40;;;11.50;99.90;;;;;;5122658;27;20236;-54
2022/01/01 06:26:38;;;;;;;18.63;12.50;;;11.50;99.90;;;;;;5096878;28;20280;-54
2022/01/01 06:29:06;;;;;;;20.00;12.10;;;11.50;99.90;;;;;;5097055;27;20212;-52
2022/01/01 06:31:35;;;;;;;20.00;11.93;;;11.50;99.90;;;;;;5131966;27;20202;-54
2022/01/01 06:34:04;;;;;;;18.63;11.83;;;11.50;99.90;;;;;;5112237;27;20201;-54
2022/01/01 06:36:32;;;;;;;19.50;12.23;;;11.50;99.90;;;;;;5091162;28;20225;-54
2022/01/01 06:39:00;;;;;;;18.73;11.83;;;11.50;99.90;;;;;;5090962;28;20212;-54
2022/01/01 06:41:29;;;;;;;18.40;11.47;;;11.50;99.90;;;;;;5104131;28;20227;-54
2022/01/01 06:43:57;;;;;;;17.07;10.93;;;11.50;99.90;;;;;;5110281;28;20199;-54
2022/01/01 06:46:26;;;;;;;20.57;11.47;;;11.50;99.90;;;;;;5112536;28;20262;-54
2022/01/01 06:48:54;;;;;;;17.80;10.93;;;11.50;99.90;;;;;;5118833;28;20200;-55
2022/01/01 06:51:22;;;;;;;17.90;11.00;;;11.50;99.90;;;;;;5103707;28;20615;-55
2022/01/01 06:53:50;;;;;;;20.57;11.10;;;11.40;99.90;;;;;;5096845;28;20208;-54
2022/01/01 06:56:18;;;;;;;16.20;9.87;;;11.50;99.90;;;;;;5110103;28;20345;-54
2022/01/01 06:58:48;;;;;;;17.57;11.40;;;11.50;99.90;;;;;;5108650;28;20672;-53
2022/01/01 07:01:16;;;;;;;19.10;10.83;;;11.50;99.90;;;;;;5090927;28;20227;-54
2022/01/01 07:03:44;;;;;;;15.70;11.03;;;11.50;99.90;;;;;;5090057;28;20576;-54
2022/01/01 07:06:13;;;;;;;17.73;10.30;;;11.50;99.90;;;;;;5090656;28;20232;-54
2022/01/01 07:08:41;;;;;;;15.40;10.53;;;11.50;99.90;;;;;;5096212;28;20619;-52
2022/01/01 07:11:09;;;;;;;15.90;10.87;;;11.50;99.90;;;;;;5111197;28;20573;-56
2022/01/01 07:13:38;;;;;;;14.47;10.53;;;11.60;99.90;;;;;;5110093;28;20706;-54
2022/01/01 07:16:07;;;;;;;17.03;11.13;;;11.60;99.90;;;;;;5110775;28;20716;-53
2022/01/01 07:18:36;;;;;;;19.30;11.47;;;11.60;99.90;;;;;;5111628;28;20300;-54
2022/01/01 07:21:04;;;;;;;19.80;10.93;;;11.60;99.90;;;;;;5113658;28;20265;-54
2022/01/01 07:23:32;;;;;;;16.70;10.30;;;11.70;99.90;;;;;;5110342;28;20238;-53
2022/01/01 07:26:00;;;;;;;15.73;10.17;;;11.70;99.90;;;;;;5104020;28;20232;-54
2022/01/01 07:28:28;;;;;;;14.43;10.00;;;11.60;99.90;;;;;;5089868;28;20255;-52
2022/01/01 07:30:56;;;;;;;18.23;10.03;;;11.60;99.90;;;;;;5104979;28;20224;-54
2022/01/01 07:33:26;;;;;;;17.23;10.07;;;11.60;99.90;;;;;;5110069;28;20595;-55
2022/01/01 07:35:55;;;;;;;14.87;9.97;;;11.60;99.90;;;;;;5093439;28;20235;-55
2022/01/01 07:38:24;;;;;;;17.50;9.43;;;11.60;99.90;;;;;;5093849;28;20208;-54
2022/01/01 07:40:53;;;;;;;19.77;9.07;;;11.60;99.90;;;;;;5096088;28;20285;-57
2022/01/01 07:43:22;;;;;;;15.43;9.73;;;11.60;99.90;;;;;;5093021;28;20209;-52
2022/01/01 07:45:51;;;;;;;18.17;9.50;;;11.60;99.90;;;;;;5093619;28;20285;-53
2022/01/01 07:48:19;;;;;;;18.27;10.90;;;11.60;99.90;;;;;;5093714;28;20200;-55
2022/01/01 07:50:49;;;;;;;16.83;10.17;;;11.60;99.90;;;;;;5109014;28;20199;-54
2022/01/01 07:53:17;;;;;;;13.90;9.33;;;11.60;99.90;;;;;;5111918;28;20247;-55
2022/01/01 07:55:45;;;;;;;18.97;10.60;;;11.50;99.90;;;;;;5098231;28;20266;-54
2022/01/01 07:58:13;;;;;;;18.23;10.57;;;11.50;99.90;;;;;;5094118;28;20255;-54
2022/01/01 08:00:41;;;;;;;14.70;9.80;;;11.50;99.90;;;;;;5111645;28;20235;-54
2022/01/01 08:03:11;;;;;;;16.27;8.97;;;11.50;99.90;;;;;;5114528;28;20229;-54
2022/01/01 08:05:39;;;;;;;18.00;9.63;;;11.60;99.90;;;;;;5113192;28;20276;-54
2022/01/01 08:08:09;;;;;;;14.07;9.43;;;11.60;99.90;;;;;;5114604;28;20249;-54
2022/01/01 08:10:39;;;;;;;16.43;10.03;;;11.60;99.90;;;;;;5114687;28;20577;-54
2022/01/01 08:13:09;;;;;;;15.00;10.10;;;11.70;99.90;;;;;;5113469;28;20328;-53
2022/01/01 08:15:37;;;;;;;16.87;10.23;;;11.60;99.90;;;;;;5113570;28;20227;-54
2022/01/01 08:18:05;;;;;;;19.40;10.10;;;11.60;99.90;;;;;;5113384;28;20803;-54
2022/01/01 08:20:38;;;;;;;14.83;9.70;;;11.60;99.90;;;;;;5114316;28;20629;-54
2022/01/01 08:23:06;;;;;;;16.47;10.70;;;11.60;99.90;;;;;;5128469;27;20242;-55
2022/01/01 08:25:36;;;;;;;15.43;9.30;;;11.60;99.90;;;;;;5102541;27;20224;-55
2022/01/01 08:28:05;;;;;;;16.63;9.80;;;11.60;99.90;;;;;;5113921;28;20208;-54
2022/01/01 08:30:34;;;;;;;15.90;9.00;;;11.60;99.90;;;;;;5113690;28;20207;-54
2022/01/01 08:33:02;;;;;;;14.47;9.00;;;11.60;99.90;;;;;;5113939;28;20204;-54
2022/01/01 08:35:32;;;;;;;14.83;9.23;;;11.60;99.90;;;;;;5113061;28;20224;-54
2022/01/01 08:38:00;;;;;;;15.73;8.77;;;11.60;99.90;;;;;;5113880;28;20200;-54
2022/01/01 08:40:29;;;;;;;16.43;9.40;;;11.60;99.90;;;;;;5107088;28;20901;-55
2022/01/01 08:42:59;;;;;;;15.00;9.13;;;11.60;99.90;;;;;;5094535;28;20267;-56
2022/01/01 08:45:32;;;;;;;14.87;9.00;;;11.70;99.90;;;;;;5096153;28;20219;-54
2022/01/01 08:48:01;;;;;;;16.43;9.13;;;11.70;99.90;;;;;;5101705;28;20212;-54
2022/01/01 08:50:29;;;;;;;12.47;8.23;;;11.60;99.90;;;;;;5095597;28;20208;-56
2022/01/01 08:52:57;;;;;;;12.63;8.23;;;11.70;99.90;;;;;;5105169;28;20217;-54
2022/01/01 08:55:26;;;;;;;13.50;8.63;;;11.70;99.90;;;;;;5102733;28;20268;-58
2022/01/01 08:57:54;;;;;;;14.47;8.70;;;11.70;99.90;;;;;;5112370;28;20208;-54
2022/01/01 09:00:43;;;;;;;19.47;8.90;;;11.70;99.90;;;;;;5111307;28;20204;-55
2022/01/01 09:03:12;;;;;;;15.00;8.07;;;11.80;99.90;;;;;;5112386;28;20600;-55
2022/01/01 09:05:42;;;;;;;15.40;9.50;;;11.70;99.90;;;;;;5113135;28;20227;-54
2022/01/01 09:08:31;;;;;;;15.13;9.53;;;11.70;99.90;;;;;;5113063;28;20207;-55
2022/01/01 09:10:59;;;;;;;15.00;9.37;;;11.80;99.90;;;;;;5113110;28;20680;-53
2022/01/01 09:13:27;;;;;;;13.67;8.63;;;11.70;99.90;;;;;;5097299;28;20223;-55
2022/01/01 09:15:57;;;;;;;11.50;8.20;;;11.80;99.90;;;;;;5094702;28;20305;-55
2022/01/01 09:18:25;;;;;;;11.27;7.77;;;11.80;99.90;;;;;;5106515;27;20207;-54
2022/01/01 09:20:53;;;;;;;12.60;8.20;;;11.90;99.90;;;;;;5092429;28;20208;-54
2022/01/01 09:23:26;;;;;;;17.50;9.10;;;11.90;99.90;;;;;;5100355;28;20212;-54
2022/01/01 09:25:54;;;;;;;12.93;8.27;;;11.90;99.90;;;;;;5095206;28;20228;-55
2022/01/01 09:28:23;;;;;;;14.30;8.03;;;11.90;99.90;;;;;;5091764;28;20232;-54
2022/01/01 09:30:51;;;;;;;13.93;7.83;;;11.90;99.90;;;;;;5098983;28;20208;-54
2022/01/01 09:33:20;;;;;;;11.87;7.60;;;11.90;99.90;;;;;;5091797;28;20253;-54
2022/01/01 09:35:48;;;;;;;16.63;7.30;;;12.00;99.90;;;;;;5092675;28;20282;-55
2022/01/01 09:38:16;;;;;;;14.03;6.90;;;11.90;99.90;;;;;;5109886;28;20381;-53
2022/01/01 09:40:44;;;;;;;13.47;7.20;;;11.90;99.90;;;;;;5112880;28;20199;-54
2022/01/01 09:43:15;;;;;;;14.20;6.93;;;12.00;99.90;;;;;;5107392;28;20272;-54
2022/01/01 09:45:44;;;;;;;9.57;6.20;;;12.00;99.90;;;;;;5112316;28;20228;-52
2022/01/01 09:48:12;;;;;;;13.63;6.63;;;12.00;99.90;;;;;;5112600;28;20282;-56
2022/01/01 09:50:46;;;;;;;12.63;6.80;;;12.00;99.90;;;;;;5097869;28;20204;-54
2022/01/01 09:53:14;;;;;;;12.33;6.60;;;12.00;99.90;;;;;;5102087;28;20256;-53
2022/01/01 09:55:42;;;;;;;10.23;6.27;;;12.00;99.90;;;;;;5094679;28;20723;-54
2022/01/01 09:58:10;;;;;;;12.80;6.60;;;12.00;99.90;;;;;;5093258;28;20204;-55
2022/01/01 10:00:38;;;;;;;13.17;6.00;;;12.10;99.90;;;;;;5102367;28;20204;-55
2022/01/01 10:03:12;;;;;;;13.53;5.47;;;12.20;99.90;;;;;;5095089;28;20219;-57
2022/01/01 10:06:01;;;;;;;15.23;6.47;;;12.20;99.90;;;;;;5100646;28;20269;-55
2022/01/01 10:08:29;;;;;;;9.27;5.70;;;12.30;99.90;;;;;;5097662;28;20235;-53
2022/01/01 10:10:58;;;;;;;11.67;5.87;;;12.30;99.90;;;;;;5096356;28;20252;-55
2022/01/01 10:13:28;;;;;;;9.37;6.20;;;12.40;99.90;;;;;;5093305;28;20722;-54
2022/01/01 10:15:57;;;;;;;11.23;5.83;;;12.40;99.90;;;;;;5093260;28;20280;-56
2022/01/01 10:18:30;;;;;;;12.83;5.83;;;12.40;99.90;;;;;;5103240;28;20633;-54
2022/01/01 10:21:02;;;;;;;10.70;5.80;;;12.40;99.90;;;;;;5100387;28;20262;-55
2022/01/01 10:23:31;;;;;;;10.47;5.70;;;12.40;99.90;;;;;;5101614;28;20227;-54
2022/01/01 10:29:09;;;;;;;12.57;5.87;;;12.50;99.90;;;;;;5102497;28;20774;-54
2022/01/01 10:31:38;;;;;;;10.27;5.43;;;12.50;99.90;;;;;;5094547;28;20203;-54
2022/01/01 10:34:12;;;;;;;12.53;5.20;;;12.50;99.90;;;;;;5100304;28;20554;-55
2022/01/01 10:36:45;;;;;;;12.63;5.40;;;12.50;99.90;;;;;;5099542;28;20247;-55
2022/01/01 10:39:15;;;;;;;12.23;5.00;;;12.50;99.90;;;;;;5098045;28;20204;-55
2022/01/01 10:41:48;;;;;;;11.37;5.47;;;12.50;99.90;;;;;;5105455;28;20274;-55
2022/01/01 10:44:21;;;;;;;9.13;4.87;;;12.60;99.90;;;;;;5131536;28;20262;-55
2022/01/01 10:46:49;;;;;;;11.27;5.20;;;12.60;99.90;;;;;;5126558;28;20247;-55
2022/01/01 10:49:49;;;;;;;10.00;4.77;;;12.60;99.90;;;;;;5111909;28;20649;-55
2022/01/01 10:52:22;;;;;;;11.63;5.10;;;12.60;99.90;;;;;;5106375;28;20664;-54
2022/01/01 10:54:54;;;;;;;7.53;5.10;;;12.60;99.90;;;;;;5092770;28;20207;-54
2022/01/01 10:57:27;;;;;;;14.10;5.17;;;12.60;99.90;;;;;;5102704;28;20641;-54
2022/01/01 11:00:11;;;;;;;9.43;4.97;;;12.60;99.90;;;;;;5098756;28;20200;-56
2022/01/01 11:02:42;;;;;;;8.37;4.80;;;12.70;99.90;;;;;;5100342;28;20261;-55
2022/01/01 11:05:10;;;;;;;11.73;5.40;;;12.60;99.90;;;;;;5098512;28;20238;-55
2022/01/01 11:07:50;;;;;;;9.17;4.10;;;12.70;99.90;;;;;;5097744;28;20208;-54
2022/01/01 11:10:19;;;;;;;9.97;4.80;;;12.80;99.90;;;;;;5100874;28;20272;-55
2022/01/01 11:12:49;;;;;;;9.47;4.73;;;12.70;99.90;;;;;;5102821;28;20652;-55
2022/01/01 11:15:18;;;;;;;12.03;4.60;;;12.80;99.90;;;;;;5105047;28;20203;-56
2022/01/01 11:17:47;;;;;;;9.93;4.23;;;12.90;99.90;;;;;;5099326;28;20253;-54
2022/01/01 11:20:16;;;;;;;10.30;4.00;;;12.80;99.90;;;;;;5098697;28;20592;-55
2022/01/01 11:22:48;;;;;;;6.93;3.87;;;12.80;99.90;;;;;;5102468;28;20298;-55
2022/01/01 11:25:17;;;;;;;11.47;3.90;;;12.80;99.90;;;;;;5109975;28;20200;-55
2022/01/01 11:27:46;;;;;;;12.53;4.40;;;12.70;99.90;;;;;;5093686;28;20220;-53
2022/01/01 11:30:16;;;;;;;8.70;4.13;;;12.80;99.90;;;;;;5107770;28;20212;-54
2022/01/01 11:32:50;;;;;;;10.27;4.20;;;12.90;99.90;;;;;;5114265;28;20204;-54
2022/01/01 11:35:21;;;;;;;10.13;4.20;;;12.80;99.90;;;;;;5110856;28;20237;-55
2022/01/01 11:38:03;;;;;;;10.57;5.17;;;12.90;99.90;;;;;;5114166;28;20218;-54
2022/01/01 11:40:43;;;;;;;10.20;4.53;;;12.80;99.90;;;;;;5090354;28;20627;-52
2022/01/01 11:43:30;;;;;;;9.93;4.57;;;12.80;99.90;;;;;;5105175;28;20224;-57
2022/01/01 11:46:07;;;;;;;10.83;4.63;;;12.80;99.90;;;;;;5082871;28;20961;-56
2022/01/01 11:48:43;;;;;;;11.87;4.10;;;12.70;99.90;;;;;;5111826;28;20235;-55
2022/01/01 11:51:32;;;;;;;9.63;3.87;;;12.70;99.90;;;;;;5112007;28;20192;-56
2022/01/01 11:54:10;;;;;;;8.07;3.97;;;12.90;99.90;;;;;;5116736;27;20664;-55
2022/01/01 11:57:10;;;;;;;9.00;4.30;;;12.90;99.90;;;;;;5123530;27;20354;-54
2022/01/01 11:59:47;;;;;;;7.40;4.07;;;13.00;99.90;;;;;;5093480;28;20216;-55
2022/01/01 12:02:49;;;;;;;8.10;3.97;;;13.00;99.90;;;;;;5092100;28;20724;-57
2022/01/01 12:05:23;;;;;;;8.93;4.10;;;13.00;99.90;;;;;;5092628;28;20255;-57
2022/01/01 12:07:54;;;;;;;8.13;3.77;;;12.90;99.90;;;;;;5119388;27;20215;-56
2022/01/01 12:10:26;;;;;;;11.23;4.50;;;13.00;99.90;;;;;;5115192;27;20630;-57
2022/01/01 12:12:57;;;;;;;9.67;4.00;;;12.90;99.90;;;;;;5095273;28;20192;-54
2022/01/01 12:15:43;;;;;;;8.70;4.50;;;12.90;99.90;;;;;;5113062;28;20257;-55
2022/01/01 12:18:13;;;;;;;6.60;3.87;;;12.90;99.90;;;;;;5113655;28;20289;-55
2022/01/01 12:20:45;;;;;;;7.70;4.43;;;12.90;99.90;;;;;;5113308;28;20227;-55
2022/01/01 12:23:15;;;;;;;6.90;4.23;;;12.90;99.90;;;;;;5113289;28;20263;-54
2022/01/01 12:25:46;;;;;;;7.43;4.40;;;12.90;99.90;;;;;;5107403;28;20266;-55
2022/01/01 12:28:17;;;;;;;8.77;4.63;;;12.80;99.90;;;;;;5113075;28;20695;-56
2022/01/01 12:30:48;;;;;;;9.70;5.57;;;12.80;99.90;;;;;;5102002;28;20200;-55
2022/01/01 12:33:44;;;;;;;11.67;5.77;;;12.90;99.90;;;;;;5113556;28;20719;-54
2022/01/01 12:36:13;;;;;;;8.10;4.80;;;12.80;99.90;;;;;;5113353;28;20272;-56
2022/01/01 12:38:48;;;;;;;10.90;5.30;;;12.90;99.90;;;;;;5113257;28;20212;-54
2022/01/01 12:41:19;;;;;;;10.17;5.47;;;12.80;99.90;;;;;;5112649;28;20207;-56
2022/01/01 12:43:50;;;;;;;8.43;4.80;;;12.80;99.90;;;;;;5104840;28;20208;-53
2022/01/01 12:46:21;;;;;;;9.60;4.67;;;12.90;99.90;;;;;;5113866;28;20291;-57
2022/01/01 12:48:50;;;;;;;9.73;5.10;;;12.90;99.90;;;;;;5133899;27;20192;-55
2022/01/01 12:51:21;;;;;;;14.07;5.60;;;12.80;99.90;;;;;;5130816;27;20843;-55
2022/01/01 12:53:55;;;;;;;9.80;5.40;;;12.90;99.90;;;;;;5093001;28;20283;-55